createdAt,value
2017-08-16T00:00:24.474Z,5.60
2017-08-16T00:02:52.870Z,6.27
2017-08-16T00:05:20.681Z,6.77
2017-08-16T00:07:48.390Z,6.60
2017-08-16T00:10:16.051Z,5.20
2017-08-16T00:12:43.742Z,4.90
2017-08-16T00:15:11.540Z,5.07
2017-08-16T00:17:39.221Z,4.83
2017-08-16T00:20:06.955Z,4.50
2017-08-16T00:22:34.589Z,5.77
2017-08-16T00:25:02.227Z,5.63
2017-08-16T00:27:29.858Z,5.27
2017-08-16T00:29:57.488Z,5.60
2017-08-16T00:32:25.143Z,5.27
2017-08-16T00:34:52.808Z,5.30
2017-08-16T00:37:21.192Z,5.20
2017-08-16T00:39:48.820Z,5.20
2017-08-16T00:42:16.452Z,6.90
2017-08-16T00:44:44.112Z,6.40
2017-08-16T00:47:11.851Z,5.80
2017-08-16T00:49:39.547Z,5.53
2017-08-16T00:52:07.219Z,5.63
2017-08-16T00:54:34.914Z,5.47
2017-08-16T00:57:02.643Z,5.33
2017-08-16T00:59:30.266Z,5.57
2017-08-16T01:01:58.639Z,6.60
2017-08-16T01:04:26.322Z,6.30
2017-08-16T01:06:53.964Z,5.37
2017-08-16T01:09:21.670Z,5.90
2017-08-16T01:11:49.343Z,6.40
2017-08-16T01:14:16.978Z,5.90
2017-08-16T01:16:44.648Z,5.57
2017-08-16T01:19:12.279Z,5.80
2017-08-16T01:21:39.971Z,5.70
2017-08-16T01:24:07.604Z,5.23
2017-08-16T01:26:35.280Z,5.90
2017-08-16T01:29:02.933Z,6.00
2017-08-16T01:31:30.585Z,5.00
2017-08-16T01:33:58.267Z,5.90
2017-08-16T01:36:25.983Z,5.73
2017-08-16T01:38:53.668Z,5.67
2017-08-16T01:41:22.114Z,6.13
2017-08-16T01:43:49.814Z,7.43
2017-08-16T01:46:18.231Z,6.00
2017-08-16T01:48:45.844Z,6.30
2017-08-16T01:51:13.513Z,6.50
2017-08-16T01:53:41.185Z,6.60
2017-08-16T01:56:08.829Z,5.53
2017-08-16T01:58:36.539Z,6.27
2017-08-16T02:01:04.174Z,5.87
2017-08-16T02:03:33.971Z,6.20
2017-08-16T02:06:01.676Z,7.17
2017-08-16T02:08:29.307Z,7.57
2017-08-16T02:10:57.778Z,7.07
2017-08-16T02:13:25.545Z,6.07
2017-08-16T02:15:53.232Z,6.23
2017-08-16T02:18:20.966Z,6.43
2017-08-16T02:20:48.659Z,6.90
2017-08-16T02:23:17.080Z,5.80
2017-08-16T02:25:45.085Z,5.50
2017-08-16T02:28:13.176Z,4.30
2017-08-16T02:30:41.177Z,5.00
2017-08-16T02:33:09.249Z,5.43
2017-08-16T02:35:36.948Z,5.53
2017-08-16T02:38:04.630Z,5.40
2017-08-16T02:40:32.369Z,5.50
2017-08-16T02:43:00.051Z,5.40
2017-08-16T02:48:18.236Z,4.57
2017-08-16T02:50:45.889Z,4.60
2017-08-16T02:53:13.561Z,4.97
2017-08-16T02:55:41.234Z,4.40
2017-08-16T02:58:09.681Z,5.00
2017-08-16T03:00:37.366Z,4.80
2017-08-16T03:03:05.073Z,4.23
2017-08-16T03:05:32.784Z,3.83
2017-08-16T03:08:00.498Z,4.50
2017-08-16T03:10:28.267Z,4.97
2017-08-16T03:12:55.968Z,4.70
2017-08-16T03:15:24.427Z,4.00
2017-08-16T03:17:52.100Z,3.90
2017-08-16T03:20:19.881Z,4.70
2017-08-16T03:22:47.567Z,8.53
2017-08-16T03:25:15.289Z,7.53
2017-08-16T03:27:43.035Z,6.93
2017-08-16T03:30:10.741Z,5.10
2017-08-16T03:32:38.410Z,4.73
2017-08-16T03:35:06.148Z,5.07
2017-08-16T03:37:33.826Z,5.40
2017-08-16T03:40:01.498Z,4.97
2017-08-16T03:42:29.168Z,4.70
2017-08-16T03:44:56.812Z,5.20
2017-08-16T03:47:24.525Z,3.93
2017-08-16T03:49:52.302Z,5.50
2017-08-16T03:52:19.985Z,5.60
2017-08-16T03:54:47.642Z,5.33
2017-08-16T03:57:15.370Z,5.20
2017-08-16T03:59:43.011Z,7.30
2017-08-16T04:02:11.459Z,7.17
2017-08-16T04:04:39.159Z,5.90
2017-08-16T04:07:07.741Z,4.87
2017-08-16T04:09:35.441Z,3.83
2017-08-16T04:12:03.113Z,3.70
2017-08-16T04:14:30.807Z,4.70
2017-08-16T04:16:58.488Z,4.10
2017-08-16T04:19:26.199Z,4.13
2017-08-16T04:21:53.859Z,4.57
2017-08-16T04:24:21.734Z,3.90
2017-08-16T04:26:49.427Z,5.90
2017-08-16T04:29:17.103Z,4.47
2017-08-16T04:31:44.871Z,5.20
2017-08-16T04:34:12.616Z,4.67
2017-08-16T04:36:40.294Z,4.60
2017-08-16T04:39:08.024Z,4.90
2017-08-16T04:41:35.732Z,4.83
2017-08-16T04:44:03.416Z,5.20
2017-08-16T04:46:31.887Z,5.10
2017-08-16T04:49:00.425Z,5.47
2017-08-16T04:51:28.263Z,7.00
2017-08-16T04:53:55.948Z,12.13
2017-08-16T04:56:23.629Z,8.13
2017-08-16T04:58:51.321Z,5.57
2017-08-16T05:01:19.019Z,7.63
2017-08-16T05:03:46.757Z,9.67
2017-08-16T05:06:15.245Z,7.30
2017-08-16T05:08:43.001Z,6.60
2017-08-16T05:11:10.746Z,6.33
2017-08-16T05:13:38.498Z,7.20
2017-08-16T05:16:06.214Z,6.30
2017-08-16T05:18:33.942Z,8.27
2017-08-16T05:21:02.417Z,7.27
2017-08-16T05:23:30.319Z,6.90
2017-08-16T05:25:58.731Z,7.40
2017-08-16T05:28:26.417Z,7.00
2017-08-16T05:30:54.059Z,8.70
2017-08-16T05:33:22.044Z,8.97
2017-08-16T05:35:49.792Z,7.50
2017-08-16T05:38:17.474Z,9.10
2017-08-16T05:40:45.175Z,8.23
2017-08-16T05:43:12.830Z,9.03
2017-08-16T05:45:40.495Z,8.50
2017-08-16T05:48:08.140Z,8.70
2017-08-16T05:50:35.820Z,7.53
2017-08-16T05:53:04.234Z,8.13
2017-08-16T05:55:31.908Z,11.70
2017-08-16T05:57:59.573Z,10.50
2017-08-16T06:00:27.249Z,11.30
2017-08-16T06:02:54.916Z,11.77
2017-08-16T06:05:22.563Z,12.93
2017-08-16T06:07:50.227Z,11.63
2017-08-16T06:10:17.972Z,11.73
2017-08-16T06:12:45.592Z,12.00
2017-08-16T06:15:13.281Z,11.90
2017-08-16T06:17:41.695Z,11.23
2017-08-16T06:20:09.388Z,12.63
2017-08-16T06:22:37.044Z,11.00
2017-08-16T06:25:04.688Z,10.90
2017-08-16T06:27:32.339Z,9.20
2017-08-16T06:29:59.963Z,9.00
2017-08-16T06:32:27.568Z,9.30
2017-08-16T06:34:55.203Z,9.80
2017-08-16T06:37:22.821Z,10.03
2017-08-16T06:39:50.443Z,9.60
2017-08-16T06:42:18.131Z,8.07
2017-08-16T06:44:45.896Z,8.20
2017-08-16T06:47:13.492Z,9.17
2017-08-16T06:49:41.137Z,8.53
2017-08-16T06:52:08.774Z,9.20
2017-08-16T06:54:36.424Z,8.90
2017-08-16T06:57:04.084Z,9.03
2017-08-16T06:59:31.732Z,9.43
2017-08-16T07:01:59.368Z,8.57
2017-08-16T07:04:27.045Z,8.60
2017-08-16T07:06:54.652Z,9.63
2017-08-16T07:09:22.291Z,8.17
2017-08-16T07:11:49.939Z,9.93
2017-08-16T07:14:18.293Z,8.93
2017-08-16T07:16:45.908Z,10.23
2017-08-16T07:19:13.570Z,8.80
2017-08-16T07:21:41.196Z,7.63
2017-08-16T07:24:09.566Z,7.70
2017-08-16T07:26:37.234Z,8.73
2017-08-16T07:29:04.855Z,8.57
2017-08-16T07:31:32.698Z,7.87
2017-08-16T07:34:00.329Z,7.13
2017-08-16T07:36:28.707Z,6.80
2017-08-16T07:38:56.347Z,6.67
2017-08-16T07:41:24.024Z,6.73
2017-08-16T07:43:51.656Z,6.67
2017-08-16T07:46:19.322Z,7.00
2017-08-16T07:48:46.999Z,6.20
2017-08-16T07:51:14.608Z,6.60
2017-08-16T07:53:42.227Z,6.37
2017-08-16T07:56:09.922Z,5.70
2017-08-16T07:58:38.312Z,5.20
2017-08-16T08:01:05.904Z,5.93
2017-08-16T08:03:33.548Z,5.83
2017-08-16T08:06:01.211Z,5.70
2017-08-16T08:08:28.828Z,5.40
2017-08-16T08:10:56.440Z,5.77
2017-08-16T08:13:24.099Z,5.63
2017-08-16T08:15:51.718Z,6.03
2017-08-16T08:18:19.355Z,6.90
2017-08-16T08:20:47.062Z,6.60
2017-08-16T08:23:16.033Z,5.60
2017-08-16T08:25:44.424Z,5.80
2017-08-16T08:28:12.077Z,5.23
2017-08-16T08:30:39.732Z,5.50
2017-08-16T08:33:07.506Z,5.90
2017-08-16T08:35:37.125Z,4.87
2017-08-16T08:38:05.542Z,4.77
2017-08-16T08:40:42.469Z,5.40
2017-08-16T08:43:14.682Z,5.63
2017-08-16T08:45:45.541Z,5.10
2017-08-16T08:48:14.242Z,5.23
2017-08-16T08:50:42.917Z,4.73
2017-08-16T08:53:13.188Z,4.37
2017-08-16T08:55:42.723Z,4.00
2017-08-16T08:58:10.380Z,2.93
2017-08-16T09:00:39.747Z,3.50
2017-08-16T09:03:17.112Z,3.80
2017-08-16T09:05:52.130Z,3.53
2017-08-16T09:08:20.009Z,3.40
2017-08-16T09:10:48.324Z,3.10
2017-08-16T09:13:15.997Z,3.37
2017-08-16T09:15:47.260Z,3.53
2017-08-16T09:18:15.362Z,3.53
2017-08-16T09:23:27.791Z,2.80
2017-08-16T09:26:02.782Z,2.33
2017-08-16T09:28:31.112Z,2.20
2017-08-16T09:30:58.807Z,2.27
2017-08-16T09:33:32.856Z,2.97
2017-08-16T09:36:08.596Z,2.63
2017-08-16T09:38:40.804Z,2.97
2017-08-16T09:41:11.782Z,4.30
2017-08-16T09:43:39.565Z,2.80
2017-08-16T09:46:12.091Z,2.50
2017-08-16T09:48:52.716Z,3.50
2017-08-16T09:54:26.618Z,5.30
2017-08-16T09:57:14.693Z,2.70
2017-08-16T10:02:46.487Z,3.90
2017-08-16T10:08:24.935Z,2.83
2017-08-16T10:11:01.145Z,2.87
2017-08-16T10:17:02.487Z,2.80
2017-08-16T10:19:53.918Z,2.47
2017-08-16T10:22:39.923Z,2.67
2017-08-16T10:25:13.409Z,2.80
2017-08-16T10:27:54.364Z,2.50
2017-08-16T10:30:22.421Z,3.00
2017-08-16T10:33:05.543Z,2.50
2017-08-16T10:35:38.661Z,2.33
2017-08-16T10:40:40.785Z,2.20
2017-08-16T10:43:19.330Z,3.10
2017-08-16T10:45:49.927Z,3.00
2017-08-16T10:51:04.600Z,2.10
2017-08-16T10:56:25.374Z,2.40
2017-08-16T10:58:55.544Z,2.50
2017-08-16T11:01:23.376Z,2.77
2017-08-16T11:06:54.554Z,2.30
2017-08-16T11:09:29.351Z,3.10
2017-08-16T11:11:58.159Z,3.10
2017-08-16T11:14:25.873Z,2.30
2017-08-16T11:16:56.575Z,2.20
2017-08-16T11:22:56.997Z,3.30
2017-08-16T11:25:50.604Z,3.40
2017-08-16T11:28:28.561Z,2.60
2017-08-16T11:31:21.113Z,3.63
2017-08-16T11:37:59.775Z,3.10
2017-08-16T11:40:33.377Z,3.07
2017-08-16T11:43:11.183Z,2.43
2017-08-16T11:46:00.725Z,2.80
2017-08-16T11:48:32.842Z,3.10
2017-08-16T11:51:01.384Z,3.17
2017-08-16T11:56:19.648Z,3.30
2017-08-16T11:58:55.598Z,3.57
2017-08-16T12:01:23.279Z,4.47
2017-08-16T12:04:01.488Z,3.27
2017-08-16T12:06:29.333Z,3.00
2017-08-16T12:08:57.737Z,3.70
2017-08-16T12:14:14.718Z,2.80
2017-08-16T12:22:58.612Z,3.10
2017-08-16T12:25:27.278Z,3.20
2017-08-16T12:27:56.621Z,3.70
2017-08-16T12:33:19.147Z,3.27
2017-08-16T12:35:47.862Z,3.07
2017-08-16T12:38:16.147Z,3.80
2017-08-16T12:40:51.249Z,3.87
2017-08-16T12:43:35.544Z,3.77
2017-08-16T12:46:14.237Z,3.87
2017-08-16T12:48:42.854Z,2.93
2017-08-16T12:51:15.729Z,2.43
2017-08-16T12:53:50.249Z,3.50
2017-08-16T12:56:20.551Z,3.53
2017-08-16T12:59:06.210Z,3.67
2017-08-16T13:01:41.736Z,3.33
2017-08-16T13:04:10.541Z,2.80
2017-08-16T13:13:32.006Z,3.83
2017-08-16T13:24:57.150Z,2.57
2017-08-16T13:27:26.378Z,2.87
2017-08-16T13:33:10.602Z,2.60
2017-08-16T13:35:38.245Z,2.33
2017-08-16T13:44:40.504Z,2.00
2017-08-16T13:47:09.103Z,2.30
2017-08-16T13:49:48.388Z,2.20
2017-08-16T13:52:17.563Z,1.90
2017-08-16T13:54:52.208Z,2.67
2017-08-16T14:00:14.493Z,2.00
2017-08-16T14:09:10.054Z,1.40
2017-08-16T14:14:36.452Z,2.60
2017-08-16T14:17:05.669Z,1.93
2017-08-16T14:19:42.573Z,2.13
2017-08-16T14:25:22.881Z,1.60
2017-08-16T14:27:53.331Z,1.87
2017-08-16T14:30:25.016Z,1.50
2017-08-16T14:32:59.462Z,2.20
2017-08-16T14:35:28.684Z,1.70
2017-08-16T14:37:56.739Z,1.87
2017-08-16T14:40:46.814Z,1.70
2017-08-16T14:49:02.995Z,1.60
2017-08-16T14:51:34.234Z,1.70
2017-08-16T14:54:10.827Z,1.80
2017-08-16T14:56:39.170Z,1.67
2017-08-16T14:59:06.904Z,1.67
2017-08-16T15:01:47.849Z,2.20
2017-08-16T15:22:05.102Z,1.90
2017-08-16T15:27:42.676Z,1.90
2017-08-16T15:36:09.647Z,1.90
2017-08-16T15:41:34.295Z,1.90
2017-08-16T15:44:11.119Z,1.70
2017-08-16T15:49:51.052Z,1.57
2017-08-16T16:01:12.675Z,1.57
2017-08-16T16:06:39.211Z,1.90
2017-08-16T16:14:47.168Z,1.47
2017-08-16T16:23:02.487Z,1.57
2017-08-16T16:28:34.595Z,1.90
2017-08-16T16:33:58.261Z,1.80
2017-08-16T17:22:26.661Z,2.43
2017-08-16T17:31:03.461Z,2.07
2017-08-16T17:48:58.426Z,2.50
2017-08-16T18:58:19.370Z,3.63
2017-08-16T19:06:57.085Z,4.00
2017-08-16T19:12:22.811Z,4.00
2017-08-16T19:17:53.693Z,3.40
2017-08-16T19:23:08.981Z,4.37
2017-08-16T19:25:39.770Z,3.73
2017-08-16T19:28:27.665Z,2.97
2017-08-16T19:30:56.044Z,4.20
2017-08-16T19:33:31.672Z,3.80
2017-08-16T19:36:10.139Z,4.63
2017-08-16T19:42:03.752Z,4.33
2017-08-16T20:35:30.501Z,4.70
2017-08-16T20:37:58.167Z,4.53
2017-08-16T20:40:26.052Z,3.93
2017-08-16T20:42:54.279Z,4.20
2017-08-16T20:45:21.899Z,4.13
2017-08-16T20:47:49.613Z,4.23
2017-08-16T20:50:17.337Z,4.17
2017-08-16T20:52:44.973Z,4.13
2017-08-16T20:55:12.737Z,4.60
2017-08-16T20:57:40.443Z,4.40
2017-08-16T21:00:08.047Z,4.80
2017-08-16T21:02:35.645Z,4.27
2017-08-16T21:05:03.374Z,4.57
2017-08-16T21:07:31.014Z,3.87
2017-08-16T21:09:58.668Z,3.93
2017-08-16T21:12:26.326Z,3.77
2017-08-16T21:14:54.843Z,3.90
2017-08-16T21:17:22.815Z,4.20
2017-08-16T21:19:50.438Z,4.20
2017-08-16T21:22:18.103Z,3.73
2017-08-16T21:24:46.897Z,3.90
2017-08-16T21:27:14.760Z,4.40
2017-08-16T21:29:44.290Z,5.17
2017-08-16T21:32:12.024Z,5.40
2017-08-16T21:34:39.807Z,4.43
2017-08-16T21:37:07.817Z,5.20
2017-08-16T21:39:35.676Z,5.47
2017-08-16T21:42:03.359Z,5.10
2017-08-16T21:44:31.193Z,4.40
2017-08-16T21:46:59.191Z,5.00
2017-08-16T21:49:26.873Z,5.20
2017-08-16T21:51:55.515Z,5.50
2017-08-16T21:54:23.192Z,4.77
2017-08-16T21:56:51.862Z,5.77
2017-08-16T21:59:19.556Z,5.67
2017-08-16T22:01:47.234Z,4.30
2017-08-16T22:04:14.904Z,5.13
2017-08-16T22:06:42.623Z,4.73
2017-08-16T22:09:10.834Z,5.60
2017-08-16T22:11:40.274Z,6.07
2017-08-16T22:14:07.955Z,5.33
2017-08-16T22:16:35.555Z,5.97
2017-08-16T22:19:03.171Z,6.57
2017-08-16T22:21:31.950Z,5.80
2017-08-16T22:23:59.563Z,4.37
2017-08-16T22:26:27.188Z,5.40
2017-08-16T22:28:54.899Z,5.40
2017-08-16T22:31:22.516Z,5.17
2017-08-16T22:33:50.139Z,5.00
2017-08-16T22:36:17.804Z,5.30
2017-08-16T22:38:45.429Z,5.13
2017-08-16T22:41:13.075Z,5.37
2017-08-16T22:43:40.813Z,4.90
2017-08-16T22:46:08.559Z,4.50
2017-08-16T22:48:36.205Z,4.80
2017-08-16T22:51:03.894Z,4.60
2017-08-16T22:53:31.540Z,4.47
2017-08-16T22:55:59.180Z,6.57
2017-08-16T22:58:27.065Z,5.57
2017-08-16T23:00:54.732Z,5.27
2017-08-16T23:03:22.362Z,4.77
2017-08-16T23:05:49.996Z,4.63
2017-08-16T23:08:17.628Z,4.40
2017-08-16T23:10:45.263Z,4.47
2017-08-16T23:13:13.091Z,5.40
2017-08-16T23:15:40.747Z,4.20
2017-08-16T23:18:08.368Z,3.90
2017-08-16T23:20:36.012Z,5.30
2017-08-16T23:23:03.760Z,4.30
2017-08-16T23:25:31.444Z,4.77
2017-08-16T23:27:59.183Z,4.70
2017-08-16T23:30:26.851Z,5.93
2017-08-16T23:32:54.612Z,5.27
2017-08-16T23:35:22.324Z,4.00
2017-08-16T23:37:49.986Z,3.90
2017-08-16T23:40:17.644Z,3.73
2017-08-16T23:42:45.300Z,3.60
2017-08-16T23:45:13.053Z,3.40
2017-08-16T23:47:40.690Z,3.97
2017-08-16T23:50:08.342Z,4.50
2017-08-16T23:52:36.018Z,3.50
2017-08-16T23:55:03.749Z,2.90
2017-08-16T23:57:31.469Z,3.37
2017-08-16T23:59:59.109Z,3.50
